Time;durP1;ratioP1;P1;durP2;ratioP2;P2;SDS_P1;SDS_P2;PMS_P1;PMS_P2;Temp;Humidity;BMP_temperature;BMP_pressure;BME280_temperature;BME280_humidity;BME280_pressure;Samples;Min_cycle;Max_cycle;Signal;HPM_P1;HPM_P2
2023/08/25 00:00:36;;;;;;;12.52;10.10;;;;;;;19.78;100.00;100772.97;5112905;27;20125;-60
2023/08/25 00:03:03;;;;;;;10.57;9.63;;;;;;;19.75;100.00;100779.53;5088112;28;20034;-61
2023/08/25 00:05:28;;;;;;;12.55;8.98;;;;;;;19.81;100.00;100786.97;5104905;28;20020;-61
2023/08/25 00:07:56;;;;;;;11.18;10.07;;;;;;;19.83;100.00;100795.78;5094058;28;20024;-61
2023/08/25 00:10:24;;;;;;;11.35;10.20;;;;;;;19.70;100.00;100793.47;5112958;28;20023;-60
2023/08/25 00:12:49;;;;;;;12.13;9.70;;;;;;;19.66;100.00;100802.91;5112188;28;20043;-61
2023/08/25 00:15:15;;;;;;;9.98;8.82;;;;;;;19.76;100.00;100793.84;5115971;27;20058;-61
2023/08/25 00:17:40;;;;;;;10.88;9.70;;;;;;;19.74;100.00;100800.28;5112277;28;20359;-61
2023/08/25 00:20:09;;;;;;;11.88;10.77;;;;;;;19.66;100.00;100784.00;5092552;28;20027;-61
2023/08/25 00:22:35;;;;;;;11.35;9.98;;;;;;;19.69;100.00;100804.44;5111758;28;20084;-61
2023/08/25 00:25:00;;;;;;;11.90;10.48;;;;;;;19.63;100.00;100805.88;5084557;28;20036;-60
2023/08/25 00:27:26;;;;;;;11.85;10.60;;;;;;;19.51;100.00;100805.28;5092760;28;20072;-61
2023/08/25 00:29:53;;;;;;;11.48;10.27;;;;;;;19.63;100.00;100799.63;5087863;28;20031;-61
2023/08/25 00:32:19;;;;;;;12.65;11.27;;;;;;;19.58;100.00;100807.34;5107227;28;20032;-61
2023/08/25 00:34:44;;;;;;;13.07;11.45;;;;;;;19.63;100.00;100805.88;5093400;27;20359;-61
2023/08/25 00:37:09;;;;;;;11.00;10.00;;;;;;;19.60;100.00;100802.66;5114603;27;20036;-61
2023/08/25 00:39:35;;;;;;;11.57;10.32;;;;;;;19.63;100.00;100810.44;5093811;28;20043;-61
2023/08/25 00:42:00;;;;;;;11.65;10.45;;;;;;;19.52;100.00;100803.41;5105841;28;20028;-60
2023/08/25 00:44:25;;;;;;;13.95;10.20;;;;;;;19.52;100.00;100808.81;5111204;28;20030;-61
2023/08/25 00:46:51;;;;;;;11.38;10.07;;;;;;;19.60;100.00;100806.19;5112580;28;20055;-60
2023/08/25 00:49:16;;;;;;;11.73;10.50;;;;;;;19.60;100.00;100802.66;5112094;28;20697;-61
2023/08/25 00:51:42;;;;;;;12.00;10.68;;;;;;;19.56;100.00;100812.03;5112460;28;20401;-61
2023/08/25 00:54:08;;;;;;;12.35;11.15;;;;;;;19.66;100.00;100802.91;5102420;27;20023;-60
2023/08/25 00:56:34;;;;;;;11.70;10.50;;;;;;;19.61;100.00;100797.09;5133010;27;20035;-60
2023/08/25 00:59:00;;;;;;;13.60;10.73;;;;;;;19.50;100.00;100803.59;5113870;27;20054;-61
2023/08/25 01:01:25;;;;;;;11.48;10.43;;;;;;;19.58;100.00;100805.50;5108162;28;20116;-61
2023/08/25 01:03:52;;;;;;;12.68;11.40;;;;;;;19.50;100.00;100803.59;5093299;28;20420;-61
2023/08/25 01:06:17;;;;;;;12.35;11.20;;;;;;;19.50;100.00;100792.81;5078312;28;20418;-61
2023/08/25 01:08:43;;;;;;;12.70;11.45;;;;;;;19.44;100.00;100792.56;5093815;28;20065;-61
2023/08/25 01:11:39;;;;;;;13.25;12.13;;;;;;;19.57;100.00;100803.81;5112967;27;20505;-60
2023/08/25 01:14:11;;;;;;;12.73;11.52;;;;;;;19.43;100.00;100805.19;5078901;28;20034;-60
2023/08/25 01:16:45;;;;;;;13.15;11.95;;;;;;;19.52;100.00;100806.13;5112333;28;20482;-61
2023/08/25 01:19:58;;;;;;;12.30;10.88;;;;;;;19.55;100.00;100800.41;5111716;28;20032;-60
2023/08/25 01:22:30;;;;;;;12.18;11.07;;;;;;;19.49;100.00;100793.78;5096149;28;20031;-60
2023/08/25 01:25:10;;;;;;;12.15;10.90;;;;;;;19.39;100.00;100797.59;5132584;28;20102;-61
2023/08/25 01:27:36;;;;;;;12.60;10.82;;;;;;;19.48;100.00;100791.25;5113660;28;20062;-60
2023/08/25 01:30:01;;;;;;;12.25;11.13;;;;;;;19.42;100.00;100790.03;5132716;28;20105;-60
2023/08/25 01:32:27;;;;;;;13.90;12.20;;;;;;;19.39;100.00;100792.19;5132200;28;20019;-61
2023/08/25 01:34:52;;;;;;;11.82;10.63;;;;;;;19.40;100.00;100770.44;5111161;28;20058;-60
2023/08/25 01:37:27;;;;;;;12.38;11.20;;;;;;;19.44;100.00;100785.34;5132473;28;20023;-61
2023/08/25 01:39:58;;;;;;;12.13;10.90;;;;;;;19.36;100.00;100789.81;5110651;28;20530;-60
2023/08/25 01:42:26;;;;;;;12.48;11.00;;;;;;;19.39;100.00;100782.25;5106450;28;20035;-61
2023/08/25 01:44:53;;;;;;;13.93;12.52;;;;;;;19.32;100.00;100783.84;5102238;28;20036;-61
2023/08/25 01:47:24;;;;;;;16.63;12.38;;;;;;;19.38;100.00;100787.78;5093514;28;20031;-61
2023/08/25 01:49:52;;;;;;;13.18;11.88;;;;;;;19.36;100.00;100782.56;5111137;28;20031;-61
2023/08/25 01:52:18;;;;;;;14.48;12.98;;;;;;;19.39;100.00;100776.84;5112650;28;20047;-61
2023/08/25 01:54:43;;;;;;;13.45;12.18;;;;;;;19.41;100.00;100774.00;5111885;28;20512;-61
2023/08/25 01:57:09;;;;;;;14.20;12.82;;;;;;;19.41;100.00;100774.00;5112070;28;20119;-61
2023/08/25 01:59:34;;;;;;;13.82;12.52;;;;;;;19.41;100.00;100761.38;5103229;28;20020;-61
2023/08/25 02:02:00;;;;;;;12.52;11.38;;;;;;;19.46;100.00;100763.59;5090299;28;20083;-61
2023/08/25 02:04:25;;;;;;;16.95;13.27;;;;;;;19.47;100.00;100765.25;5094034;28;20492;-61
2023/08/25 02:06:51;;;;;;;15.05;12.95;;;;;;;19.48;100.00;100761.59;5093554;28;20024;-60
2023/08/25 02:09:17;;;;;;;12.90;11.80;;;;;;;19.47;100.00;100758.03;5091896;28;20038;-61
2023/08/25 02:11:42;;;;;;;15.57;12.90;;;;;;;19.51;100.00;100762.13;5114697;28;20031;-60
2023/08/25 02:14:07;;;;;;;14.48;13.18;;;;;;;19.51;100.00;100758.56;5114409;27;20452;-61
2023/08/25 02:16:33;;;;;;;21.88;15.45;;;;;;;19.52;100.00;100755.69;5114444;28;20466;-61
2023/08/25 02:18:58;;;;;;;16.85;15.07;;;;;;;19.58;100.00;100758.78;5114281;28;20047;-60
2023/08/25 02:21:24;;;;;;;17.88;14.93;;;;;;;19.57;100.00;100752.53;5097186;27;20554;-61
2023/08/25 02:23:49;;;;;;;15.43;13.95;;;;;;;19.59;100.00;100764.03;5101806;28;20031;-61
2023/08/25 02:26:15;;;;;;;17.23;15.65;;;;;;;19.54;100.00;100752.03;5079887;28;20019;-61
2023/08/25 02:28:40;;;;;;;18.50;16.48;;;;;;;19.60;100.00;100754.94;5096557;28;20023;-61
2023/08/25 02:31:06;;;;;;;19.33;17.42;;;;;;;19.57;100.00;100754.41;5115235;28;20031;-61
2023/08/25 02:33:31;;;;;;;18.83;17.30;;;;;;;19.60;100.00;100746.00;5129269;27;20031;-61
2023/08/25 02:35:57;;;;;;;19.63;17.65;;;;;;;19.58;100.00;100743.44;5115934;27;20042;-61
2023/08/25 02:38:22;;;;;;;19.13;17.52;;;;;;;19.57;100.00;100735.53;5135730;27;20030;-60
2023/08/25 02:40:47;;;;;;;20.02;18.27;;;;;;;19.61;100.00;100726.94;5117146;27;20083;-61
2023/08/25 02:43:13;;;;;;;19.48;17.77;;;;;;;19.55;100.00;100726.72;5117126;27;20029;-61
2023/08/25 02:45:41;;;;;;;20.45;18.45;;;;;;;19.59;100.00;100720.88;5096603;28;20035;-61
2023/08/25 02:48:06;;;;;;;19.27;17.42;;;;;;;19.65;100.00;100719.41;5114989;28;20015;-61
2023/08/25 02:50:33;;;;;;;21.00;18.75;;;;;;;19.57;100.00;100725.56;5114468;28;20026;-61
2023/08/25 02:52:58;;;;;;;20.20;18.48;;;;;;;19.58;100.00;100719.16;5116460;27;20034;-61
2023/08/25 02:55:24;;;;;;;21.67;19.48;;;;;;;19.51;100.00;100720.81;5114612;28;20027;-61
2023/08/25 02:57:52;;;;;;;21.40;18.83;;;;;;;19.61;100.00;100713.44;5113981;28;20030;-61
2023/08/25 03:00:28;;;;;;;19.63;17.88;;;;;;;19.60;100.00;100709.06;5113387;28;20588;-61
2023/08/25 03:02:56;;;;;;;20.45;18.45;;;;;;;19.63;100.00;100707.91;5097288;28;20020;-61
2023/08/25 03:05:21;;;;;;;20.77;18.70;;;;;;;19.68;100.00;100709.16;5104689;28;20055;-61
2023/08/25 03:07:49;;;;;;;20.70;18.70;;;;;;;19.64;100.00;100696.94;5093003;28;20050;-61
2023/08/25 03:10:15;;;;;;;18.95;17.15;;;;;;;19.60;100.00;100705.53;5097684;28;20024;-61
2023/08/25 03:12:40;;;;;;;22.67;18.20;;;;;;;19.56;100.00;100704.13;5113385;27;20136;-60
2023/08/25 03:15:07;;;;;;;20.75;18.92;;;;;;;19.57;100.00;100695.03;5109983;27;20050;-61
2023/08/25 03:17:32;;;;;;;21.08;18.67;;;;;;;19.56;100.00;100683.41;5083627;28;20026;-61
2023/08/25 03:20:00;;;;;;;24.27;20.17;;;;;;;19.63;100.00;100689.00;5093765;28;20024;-61
2023/08/25 03:22:26;;;;;;;21.30;19.20;;;;;;;19.56;100.00;100691.50;5129005;27;20031;-60
2023/08/25 03:24:51;;;;;;;22.73;20.42;;;;;;;19.50;100.00;100671.41;5111243;27;20035;-61
2023/08/25 03:27:17;;;;;;;23.00;20.58;;;;;;;19.48;100.00;100667.16;5085057;28;20023;-61
2023/08/25 03:29:42;;;;;;;22.70;20.35;;;;;;;19.62;100.00;100671.09;5076257;28;20116;-61
2023/08/25 03:32:10;;;;;;;21.88;19.70;;;;;;;19.60;100.00;100676.69;5114366;27;20668;-61
2023/08/25 03:34:36;;;;;;;23.58;21.17;;;;;;;19.61;100.00;100672.13;5111199;28;20019;-61
2023/08/25 03:37:03;;;;;;;23.63;21.38;;;;;;;19.56;100.00;100671.75;5079545;28;20030;-61
2023/08/25 03:39:31;;;;;;;24.75;22.48;;;;;;;19.61;100.00;100677.53;5110635;28;20099;-61
2023/08/25 03:41:56;;;;;;;23.75;21.55;;;;;;;19.58;100.00;100657.09;5106586;27;20023;-61
2023/08/25 03:44:21;;;;;;;24.38;21.92;;;;;;;19.63;100.00;100660.16;5093727;28;20114;-61
2023/08/25 03:46:47;;;;;;;25.38;21.83;;;;;;;19.64;100.00;100652.91;5094517;28;20030;-61
2023/08/25 03:49:12;;;;;;;23.42;21.10;;;;;;;19.67;100.00;100658.88;5106217;28;20031;-61
2023/08/25 03:51:38;;;;;;;25.73;23.30;;;;;;;19.66;100.00;100656.34;5094531;27;20110;-60
2023/08/25 03:54:06;;;;;;;26.33;23.67;;;;;;;19.63;100.00;100662.03;5113537;28;20027;-61
2023/08/25 03:56:34;;;;;;;26.33;23.55;;;;;;;19.58;100.00;100645.47;5106901;28;20466;-61
2023/08/25 03:58:59;;;;;;;26.60;23.85;;;;;;;19.61;100.00;100662.16;5094265;28;20031;-60
2023/08/25 04:01:27;;;;;;;25.33;22.70;;;;;;;19.58;100.00;100657.09;5110673;28;20054;-61
2023/08/25 04:03:52;;;;;;;25.85;23.30;;;;;;;19.55;100.00;100660.13;5105751;28;20038;-61
2023/08/25 04:06:17;;;;;;;26.58;23.92;;;;;;;19.57;100.00;100652.72;5082077;28;20536;-61
2023/08/25 04:08:43;;;;;;;25.77;23.23;;;;;;;19.55;100.00;100652.03;5105203;28;20027;-61
2023/08/25 04:11:08;;;;;;;25.90;23.27;;;;;;;19.54;100.00;100650.34;5105243;27;20126;-60
2023/08/25 04:13:33;;;;;;;27.02;24.13;;;;;;;19.55;100.00;100656.56;5121129;27;20036;-60
2023/08/25 04:16:01;;;;;;;26.80;24.33;;;;;;;19.55;100.00;100656.56;5112738;28;20033;-61
2023/08/25 04:18:27;;;;;;;26.40;23.75;;;;;;;19.52;100.00;100650.47;5113780;27;20027;-61
2023/08/25 04:20:52;;;;;;;26.27;23.88;;;;;;;19.56;100.00;100642.94;5085337;27;20071;-60
2023/08/25 04:23:17;;;;;;;24.80;22.60;;;;;;;19.58;100.00;100653.56;5113830;28;20064;-61
2023/08/25 04:25:43;;;;;;;27.45;23.38;;;;;;;19.42;100.00;100633.59;5111614;28;20035;-60
2023/08/25 04:28:11;;;;;;;25.48;22.80;;;;;;;19.44;100.00;100631.59;5112127;28;20027;-61
2023/08/25 04:30:37;;;;;;;25.80;23.20;;;;;;;19.54;100.00;100644.09;5097594;27;20023;-61
2023/08/25 04:33:02;;;;;;;25.67;23.35;;;;;;;19.52;100.00;100647.78;5132836;27;20059;-61
2023/08/25 04:35:28;;;;;;;24.52;21.95;;;;;;;19.49;100.00;100647.28;5113294;27;20037;-61
2023/08/25 04:37:53;;;;;;;24.92;22.55;;;;;;;19.45;100.00;100635.13;5114851;27;20027;-60
2023/08/25 04:40:20;;;;;;;24.67;22.27;;;;;;;19.45;100.00;100652.16;5114831;27;20030;-61
2023/08/25 04:42:46;;;;;;;24.08;21.88;;;;;;;19.42;100.00;100647.06;5130734;27;20030;-61
2023/08/25 04:45:12;;;;;;;24.52;22.02;;;;;;;19.47;100.00;100660.94;5132920;27;20110;-60
2023/08/25 04:47:38;;;;;;;24.35;22.00;;;;;;;19.39;100.00;100647.38;5133487;27;20019;-61
2023/08/25 04:50:07;;;;;;;24.17;21.85;;;;;;;19.41;100.00;100647.22;5131546;27;20037;-61
2023/08/25 04:52:34;;;;;;;26.00;21.48;;;;;;;19.51;100.00;100645.28;5113303;28;20110;-61
2023/08/25 04:55:02;;;;;;;24.75;22.38;;;;;;;19.48;100.00;100637.50;5133141;27;20035;-61
2023/08/25 04:57:28;;;;;;;23.83;21.50;;;;;;;19.48;100.00;100643.72;5132978;27;20118;-61
2023/08/25 04:59:53;;;;;;;23.90;21.50;;;;;;;19.56;100.00;100639.38;5114259;28;20050;-60
2023/08/25 05:02:21;;;;;;;24.25;21.92;;;;;;;19.55;100.00;100632.28;5114239;27;20044;-61
2023/08/25 05:04:47;;;;;;;24.38;22.08;;;;;;;19.52;100.00;100625.38;5091089;28;20019;-61
2023/08/25 05:07:12;;;;;;;24.63;22.35;;;;;;;19.53;100.00;100621.69;5109714;28;20102;-61
2023/08/25 05:09:40;;;;;;;23.90;21.35;;;;;;;19.49;100.00;100618.44;5110780;28;20023;-61
2023/08/25 05:12:06;;;;;;;23.73;21.35;;;;;;;19.51;100.00;100623.69;5091064;28;20016;-61
2023/08/25 05:14:31;;;;;;;24.13;21.70;;;;;;;19.56;100.00;100631.28;5101033;28;20028;-61
2023/08/25 05:16:57;;;;;;;26.35;21.10;;;;;;;19.51;100.00;100631.78;5103188;28;20034;-61
2023/08/25 05:19:22;;;;;;;23.20;21.02;;;;;;;19.56;100.00;100632.16;5108646;28;20405;-61
2023/08/25 05:21:50;;;;;;;22.55;20.27;;;;;;;19.52;100.00;100633.47;5107483;28;20027;-61
2023/08/25 05:24:21;;;;;;;22.77;20.67;;;;;;;19.52;100.00;100633.47;5111238;28;20028;-60
2023/08/25 05:26:55;;;;;;;22.98;20.73;;;;;;;19.46;100.00;100631.41;5101653;28;20019;-61
2023/08/25 05:29:26;;;;;;;22.80;20.58;;;;;;;19.47;100.00;100641.19;5098766;28;20023;-61
2023/08/25 05:31:52;;;;;;;22.88;20.67;;;;;;;19.52;100.00;100642.41;5108847;28;20035;-61
2023/08/25 05:34:17;;;;;;;19.95;17.85;;;;;;;19.58;100.00;100650.84;5093236;28;20019;-61
2023/08/25 05:36:43;;;;;;;18.65;16.52;;;;;;;19.60;100.00;100624.56;5083158;28;20028;-61
2023/08/25 05:39:09;;;;;;;18.70;16.65;;;;;;;19.66;100.00;100629.34;5093709;28;20016;-61
2023/08/25 05:41:35;;;;;;;16.73;14.48;;;;;;;19.64;100.00;100629.47;5108214;28;20489;-60
2023/08/25 05:44:01;;;;;;;13.10;11.70;;;;;;;19.57;100.00;100627.59;5109523;28;20035;-60
2023/08/25 05:46:29;;;;;;;15.77;12.20;;;;;;;19.57;100.00;100622.19;5114596;28;20020;-61
2023/08/25 05:48:54;;;;;;;13.18;11.82;;;;;;;19.61;100.00;100615.47;5113921;28;20085;-60
2023/08/25 05:51:20;;;;;;;11.65;10.52;;;;;;;19.56;100.00;100615.97;5119625;27;20499;-60
2023/08/25 05:53:45;;;;;;;13.02;11.23;;;;;;;19.57;100.00;100611.41;5095475;28;20462;-61
2023/08/25 05:56:10;;;;;;;12.23;10.80;;;;;;;19.54;100.00;100606.34;5096188;28;20501;-60
2023/08/25 05:58:36;;;;;;;12.10;10.85;;;;;;;19.56;100.00;100607.00;5096335;28;20060;-61
2023/08/25 06:01:01;;;;;;;14.90;11.38;;;;;;;19.63;100.00;100617.00;5113215;27;20104;-60
2023/08/25 06:03:27;;;;;;;13.20;10.05;;;;;;;19.52;100.00;100599.22;5115487;28;20482;-61
2023/08/25 06:05:53;;;;;;;12.43;10.70;;;;;;;19.60;100.00;100603.00;5115174;28;20024;-60
2023/08/25 06:08:19;;;;;;;11.73;10.07;;;;;;;19.56;100.00;100588.97;5115586;28;20028;-60
2023/08/25 06:10:45;;;;;;;14.98;10.35;;;;;;;19.37;100.00;100587.34;5115345;27;20035;-60
2023/08/25 06:13:11;;;;;;;11.43;9.82;;;;;;;19.43;100.00;100597.50;5116973;27;20038;-61
2023/08/25 06:15:36;;;;;;;15.63;11.38;;;;;;;19.45;100.00;100600.91;5116879;27;20024;-61
2023/08/25 06:18:04;;;;;;;15.40;10.77;;;;;;;19.42;100.00;100606.59;5097560;28;20108;-60
2023/08/25 06:20:33;;;;;;;15.68;11.73;;;;;;;19.40;100.00;100607.78;5087896;28;20509;-61
2023/08/25 06:22:58;;;;;;;12.05;10.80;;;;;;;19.42;100.00;100619.25;5113835;28;20032;-61
2023/08/25 06:25:24;;;;;;;13.82;11.15;;;;;;;19.38;100.00;100613.31;5079545;28;20031;-61
2023/08/25 06:27:50;;;;;;;12.82;10.82;;;;;;;19.41;100.00;100631.91;5114075;28;20344;-60
2023/08/25 06:30:17;;;;;;;12.85;10.52;;;;;;;19.30;100.00;100648.34;5128621;27;20092;-61
2023/08/25 06:32:45;;;;;;;14.45;11.23;;;;;;;19.25;100.00;100623.69;5135625;27;20027;-60
2023/08/25 06:35:12;;;;;;;15.52;10.85;;;;;;;19.26;100.00;100631.59;5114682;27;20030;-61
2023/08/25 06:37:37;;;;;;;15.27;11.27;;;;;;;19.37;100.00;100624.28;5115046;28;20027;-61
2023/08/25 06:40:07;;;;;;;12.80;10.77;;;;;;;19.32;100.00;100615.81;5114713;28;20098;-61
2023/08/25 06:42:33;;;;;;;16.90;11.85;;;;;;;19.38;100.00;100609.78;5109875;28;20028;-61
2023/08/25 06:44:59;;;;;;;12.05;10.85;;;;;;;19.34;100.00;100593.06;5106905;27;20079;-61
2023/08/25 06:47:27;;;;;;;19.65;10.80;;;;;;;19.37;100.00;100614.31;5094281;28;20049;-61
2023/08/25 06:49:54;;;;;;;14.13;11.53;;;;;;;19.31;100.00;100608.72;5093411;28;20032;-61
2023/08/25 06:52:20;;;;;;;14.75;11.32;;;;;;;19.29;100.00;100606.19;5094411;28;20270;-61
2023/08/25 06:54:48;;;;;;;14.80;11.40;;;;;;;19.38;100.00;100598.97;5101331;28;20084;-61
2023/08/25 06:57:13;;;;;;;17.48;11.35;;;;;;;19.32;100.00;100568.09;5113725;28;20024;-60
2023/08/25 06:59:39;;;;;;;13.02;11.43;;;;;;;19.28;100.00;100547.88;5118548;27;20108;-60
2023/08/25 07:02:04;;;;;;;12.32;10.73;;;;;;;19.30;100.00;100543.16;5088581;28;20046;-60
2023/08/25 07:04:30;;;;;;;12.80;10.80;;;;;;;19.21;100.00;100549.53;5111612;27;20498;-60
2023/08/25 07:06:56;;;;;;;14.95;11.15;;;;;;;19.20;100.00;100566.69;5111621;28;20019;-60
2023/08/25 07:09:21;;;;;;;12.45;10.75;;;;;;;19.19;100.00;100571.25;5113607;28;20020;-60
2023/08/25 07:11:47;;;;;;;14.68;11.35;;;;;;;19.10;100.00;100580.28;5096292;28;20047;-60
2023/08/25 07:14:13;;;;;;;17.98;11.70;;;;;;;19.04;100.00;100552.13;5107817;27;20409;-60
2023/08/25 07:16:38;;;;;;;16.20;12.43;;;;;;;19.16;100.00;100555.38;5113765;28;20024;-61
2023/08/25 07:19:04;;;;;;;12.85;11.55;;;;;;;19.13;100.00;100553.00;5094158;28;20098;-61
2023/08/25 07:21:29;;;;;;;15.25;12.27;;;;;;;19.09;100.00;100594.78;5112467;28;20595;-60
2023/08/25 07:23:55;;;;;;;20.15;12.70;;;;;;;19.11;100.00;100664.72;5113239;28;20019;-61
2023/08/25 07:26:21;;;;;;;21.40;15.27;;;;;;;19.13;100.00;100704.00;5111220;28;20015;-61
2023/08/25 07:28:47;;;;;;;20.83;14.50;;;;;;;19.10;100.00;100657.63;5094111;28;20034;-60
2023/08/25 07:31:17;;;;;;;21.77;13.05;;;;;;;19.03;100.00;100619.66;5096504;28;20405;-62
2023/08/25 07:33:42;;;;;;;17.25;12.30;;;;;;;18.95;100.00;100625.84;5089539;28;20028;-62
2023/08/25 07:36:07;;;;;;;15.63;12.20;;;;;;;19.03;100.00;100634.00;5122648;27;20120;-62
2023/08/25 07:38:33;;;;;;;14.98;12.00;;;;;;;18.97;100.00;100614.88;5097818;28;20064;-61
2023/08/25 07:40:58;;;;;;;13.30;11.55;;;;;;;19.04;100.00;100643.78;5094960;28;20133;-61
2023/08/25 07:43:24;;;;;;;16.23;11.55;;;;;;;19.05;100.00;100636.53;5114316;27;20039;-61
2023/08/25 07:45:49;;;;;;;16.58;12.45;;;;;;;19.06;100.00;100649.03;5109106;27;20019;-60
2023/08/25 07:48:15;;;;;;;15.60;12.38;;;;;;;19.05;100.00;100656.22;5128514;27;20515;-61
2023/08/25 07:50:40;;;;;;;17.55;11.75;;;;;;;19.03;100.00;100660.09;5112202;27;20069;-61
2023/08/25 07:53:06;;;;;;;13.27;11.88;;;;;;;18.99;100.00;100648.78;5082743;28;20031;-60
2023/08/25 07:55:32;;;;;;;15.88;11.93;;;;;;;18.99;100.00;100645.25;5079823;28;20020;-61
2023/08/25 07:57:58;;;;;;;14.65;11.65;;;;;;;18.98;100.00;100647.09;5105906;27;20394;-61
2023/08/25 08:00:28;;;;;;;15.52;11.77;;;;;;;18.90;100.00;100632.72;5087314;27;20027;-61
2023/08/25 08:02:53;;;;;;;11.98;10.77;;;;;;;18.87;100.00;100624.94;5105383;27;20043;-61
2023/08/25 08:05:19;;;;;;;11.50;10.48;;;;;;;18.92;100.00;100630.72;5084229;28;20397;-61
2023/08/25 08:07:45;;;;;;;13.10;11.70;;;;;;;18.89;100.00;100647.19;5105189;27;20026;-61
2023/08/25 08:10:14;;;;;;;12.80;11.50;;;;;;;18.84;100.00;100656.56;5090992;28;20024;-61
2023/08/25 08:12:41;;;;;;;13.43;11.15;;;;;;;18.91;100.00;100651.41;5078117;28;20023;-61
2023/08/25 08:15:12;;;;;;;13.25;11.25;;;;;;;18.89;100.00;100652.59;5110176;28;20031;-61
2023/08/25 08:17:39;;;;;;;13.27;11.88;;;;;;;18.88;100.00;100645.47;5101460;28;20038;-61
2023/08/25 08:20:06;;;;;;;13.43;11.43;;;;;;;18.82;100.00;100634.34;5103431;27;20020;-61
2023/08/25 08:22:31;;;;;;;13.63;11.93;;;;;;;18.83;100.00;100622.56;5112547;28;20473;-61
2023/08/25 08:24:57;;;;;;;14.00;12.23;;;;;;;18.76;100.00;100604.47;5086342;28;20026;-61
2023/08/25 08:27:22;;;;;;;14.05;12.35;;;;;;;18.90;100.00;100619.22;5107888;27;20456;-60
2023/08/25 08:29:48;;;;;;;15.82;12.98;;;;;;;18.81;100.00;100629.94;5101744;28;20020;-61
2023/08/25 08:32:14;;;;;;;14.98;13.43;;;;;;;18.82;100.00;100620.00;5107352;27;20031;-61
2023/08/25 08:34:39;;;;;;;14.23;12.82;;;;;;;18.83;100.00;100619.84;5104721;28;20031;-61
2023/08/25 08:37:05;;;;;;;13.93;12.73;;;;;;;18.93;100.00;100633.22;5092623;27;20025;-61
2023/08/25 08:39:33;;;;;;;13.45;12.20;;;;;;;18.84;100.00;100651.19;5111081;27;20032;-61
2023/08/25 08:42:01;;;;;;;14.65;12.80;;;;;;;18.94;100.00;100651.13;5092009;28;20028;-61
2023/08/25 08:44:26;;;;;;;14.13;12.60;;;;;;;18.89;100.00;100645.34;5092161;28;20020;-61
2023/08/25 08:46:53;;;;;;;14.50;13.20;;;;;;;18.92;100.00;100646.88;5095004;27;20020;-61
2023/08/25 08:49:22;;;;;;;15.50;14.02;;;;;;;18.88;100.00;100649.00;5100984;27;20024;-61
2023/08/25 08:51:52;;;;;;;15.97;14.40;;;;;;;18.90;100.00;100657.81;5091699;28;20054;-63
2023/08/25 08:54:20;;;;;;;14.98;13.38;;;;;;;18.89;100.00;100664.19;5073707;28;20528;-65
2023/08/25 08:56:46;;;;;;;17.48;15.85;;;;;;;18.88;100.00;100675.13;5073835;28;20540;-66
2023/08/25 08:59:12;;;;;;;18.00;16.40;;;;;;;18.87;100.00;100657.28;5110670;28;20031;-66
2023/08/25 09:01:38;;;;;;;17.08;15.57;;;;;;;18.78;100.00;100640.19;5094115;28;20104;-65
2023/08/25 09:04:07;;;;;;;17.92;16.17;;;;;;;18.74;100.00;100628.88;5093498;28;20031;-65
2023/08/25 09:06:37;;;;;;;17.95;16.30;;;;;;;18.83;100.00;100624.41;5112656;27;20019;-65
2023/08/25 09:09:05;;;;;;;18.52;16.83;;;;;;;18.71;100.00;100613.00;5132455;27;20030;-65
2023/08/25 09:11:32;;;;;;;17.58;15.88;;;;;;;18.71;100.00;100652.56;5132722;27;20035;-65
2023/08/25 09:14:03;;;;;;;19.10;17.35;;;;;;;18.86;100.00;100666.38;5127301;27;20023;-65
2023/08/25 09:16:30;;;;;;;18.58;16.85;;;;;;;18.90;100.00;100651.56;5094033;28;20020;-65
2023/08/25 09:19:00;;;;;;;19.00;16.63;;;;;;;18.86;100.00;100632.19;5112987;28;20107;-65
2023/08/25 09:21:25;;;;;;;18.45;16.92;;;;;;;18.87;100.00;100589.91;5112637;28;20016;-65
2023/08/25 09:23:59;;;;;;;19.17;17.33;;;;;;;18.95;100.00;100577.31;5093634;28;20111;-65
2023/08/25 09:26:26;;;;;;;19.00;17.33;;;;;;;19.08;100.00;100621.88;5093973;28;20104;-65
2023/08/25 09:28:53;;;;;;;18.90;17.30;;;;;;;19.13;100.00;100639.28;5111254;28;20386;-65
2023/08/25 09:31:28;;;;;;;16.90;15.48;;;;;;;19.17;100.00;100651.44;5092986;28;20023;-65
2023/08/25 09:34:08;;;;;;;18.38;16.88;;;;;;;19.12;100.00;100655.59;5076522;28;20028;-65
2023/08/25 09:36:34;;;;;;;19.77;17.95;;;;;;;19.07;100.00;100648.00;5073688;28;20377;-66
2023/08/25 09:39:01;;;;;;;19.08;17.42;;;;;;;19.19;100.00;100649.44;5091413;28;20028;-65
2023/08/25 09:41:30;;;;;;;20.50;18.45;;;;;;;19.16;100.00;100638.97;5073484;28;20024;-65
2023/08/25 09:44:02;;;;;;;19.15;17.33;;;;;;;19.14;100.00;100634.72;5110920;28;20031;-66
2023/08/25 09:46:34;;;;;;;19.80;17.83;;;;;;;19.10;100.00;100636.91;5111895;28;20020;-66
2023/08/25 09:49:05;;;;;;;20.13;18.25;;;;;;;19.15;100.00;100641.81;5111233;28;20024;-65
2023/08/25 09:51:34;;;;;;;20.98;19.08;;;;;;;19.25;100.00;100654.19;5112044;28;20522;-65
2023/08/25 09:54:02;;;;;;;20.10;18.30;;;;;;;19.31;100.00;100647.31;5109955;28;20072;-66
2023/08/25 09:56:30;;;;;;;20.70;18.90;;;;;;;19.43;100.00;100640.66;5111867;28;20043;-66
2023/08/25 09:58:55;;;;;;;22.95;20.55;;;;;;;19.41;100.00;100637.28;5093194;28;20016;-66
2023/08/25 10:01:21;;;;;;;20.55;18.90;;;;;;;19.43;100.00;100632.56;5110017;28;20508;-66
2023/08/25 10:03:47;;;;;;;21.27;19.58;;;;;;;19.42;100.00;100641.69;5091132;28;20045;-66
2023/08/25 10:06:13;;;;;;;22.40;20.27;;;;;;;19.58;100.00;100634.66;5072706;28;20051;-66
2023/08/25 10:08:38;;;;;;;20.98;19.10;;;;;;;19.73;100.00;100651.97;5091537;28;20062;-66
2023/08/25 10:11:04;;;;;;;20.40;18.48;;;;;;;19.88;100.00;100642.28;5091103;28;20080;-66
2023/08/25 10:13:33;;;;;;;19.73;17.92;;;;;;;19.96;100.00;100641.47;5093244;28;20024;-65
2023/08/25 10:16:02;;;;;;;18.55;16.95;;;;;;;20.03;100.00;100641.66;5093127;28;20061;-66
2023/08/25 10:18:31;;;;;;;17.48;15.98;;;;;;;19.99;100.00;100657.34;5111415;28;20080;-65
2023/08/25 10:20:58;;;;;;;17.38;15.93;;;;;;;20.00;100.00;100653.63;5092620;28;20031;-65
2023/08/25 10:23:25;;;;;;;16.77;15.43;;;;;;;20.07;100.00;100640.31;5111057;28;20028;-65
2023/08/25 10:25:51;;;;;;;18.10;16.40;;;;;;;20.18;100.00;100648.13;5075668;28;20073;-65
2023/08/25 10:28:17;;;;;;;17.38;15.85;;;;;;;20.20;100.00;100638.81;5111323;28;20027;-66
2023/08/25 10:30:42;;;;;;;16.30;15.05;;;;;;;20.27;100.00;100643.59;5073452;28;20421;-66
2023/08/25 10:33:12;;;;;;;17.73;16.10;;;;;;;20.30;100.00;100646.81;5115524;27;20024;-66
2023/08/25 10:35:44;;;;;;;18.10;16.35;;;;;;;20.29;100.00;100657.75;5094415;28;20551;-66
2023/08/25 10:38:32;;;;;;;16.42;15.07;;;;;;;20.28;100.00;100661.50;5060292;28;20093;-66
2023/08/25 10:41:10;;;;;;;17.73;16.30;;;;;;;20.10;100.00;100664.31;5085588;28;20036;-67
2023/08/25 10:43:37;;;;;;;17.67;16.17;;;;;;;19.91;100.00;100654.59;5107700;28;20523;-65
2023/08/25 10:46:07;;;;;;;18.23;16.50;;;;;;;19.93;100.00;100671.47;5114784;28;20027;-66
2023/08/25 10:48:32;;;;;;;19.45;17.95;;;;;;;19.87;100.00;100666.72;5114616;28;20462;-66
2023/08/25 10:51:15;;;;;;;19.15;17.45;;;;;;;19.87;100.00;100658.63;5114049;28;20030;-65
2023/08/25 10:53:46;;;;;;;19.15;17.55;;;;;;;19.79;100.00;100666.69;5094348;28;20554;-66
2023/08/25 10:56:18;;;;;;;21.17;19.38;;;;;;;19.78;100.00;100656.91;5094070;28;20035;-65
2023/08/25 10:58:53;;;;;;;21.60;19.73;;;;;;;19.76;100.00;100657.06;5076058;28;20539;-65
2023/08/25 11:01:19;;;;;;;21.90;19.83;;;;;;;19.73;100.00;100655.53;5100158;28;20153;-64